Airport View

Enter AWOS ICAO identifier for current METAR.

ex. KFNL

KTNU 030010Z AUTO 21014G21KT 10SM CLR 31/20 A2980 RMK A01

3 Jun 2020 00:10

Frequency: 132.275

Phone: 641-791-3302

Other Area AWOS: KGGI - KPEA - KOXV - KIKV

TAF KDSM 022343Z 0300/0324 21016G25KT P6SM SCT250 FM030800 22006KT P6SM VCTS BKN100CB FM031000 22005KT 6SM -SHRA VCTS BKN100CB FM031100 VRB03KT P6SM BKN100 FM031500 03008KT P6SM BKN120